Time;durP1;ratioP1;P1;durP2;ratioP2;P2;SDS_P1;SDS_P2;PMS_P1;PMS_P2;Temp;Humidity;BMP_temperature;BMP_pressure;BME280_temperature;BME280_humidity;BME280_pressure;Samples;Min_cycle;Max_cycle;Signal;HPM_P1;HPM_P2
2021/07/11 00:00:13;;;;;;;22.33;20.02;;;25.60;77.00;;;;;;5018001;28;20351;-86
2021/07/11 00:02:39;;;;;;;20.90;18.70;;;25.60;77.00;;;;;;5017954;28;20112;-86
2021/07/11 00:05:07;;;;;;;21.45;19.25;;;25.60;76.90;;;;;;5017027;28;20380;-88
2021/07/11 00:07:33;;;;;;;21.10;18.95;;;25.60;77.00;;;;;;5018870;28;20034;-86
2021/07/11 00:10:00;;;;;;;21.45;19.20;;;25.60;77.10;;;;;;5002325;28;20107;-84
2021/07/11 00:12:27;;;;;;;23.38;20.70;;;25.60;77.10;;;;;;5019290;28;20020;-85
2021/07/11 00:14:54;;;;;;;19.55;17.52;;;25.60;77.10;;;;;;5039965;28;20037;-87
2021/07/11 00:17:21;;;;;;;22.13;19.98;;;25.50;77.10;;;;;;5023527;28;20025;-88
2021/07/11 00:19:47;;;;;;;21.13;19.15;;;;;;;;;;5019263;28;20033;-87
2021/07/11 00:22:13;;;;;;;20.83;18.88;;;;;;;;;;5037236;28;20402;-87
2021/07/11 00:24:40;;;;;;;20.15;18.30;;;;;;;;;;5036466;28;20072;-85
2021/07/11 00:27:09;;;;;;;18.73;17.00;;;25.50;77.30;;;;;;5035808;28;20792;-86
2021/07/11 00:29:35;;;;;;;21.92;19.77;;;25.40;76.70;;;;;;5027711;28;20521;-87
2021/07/11 00:32:01;;;;;;;21.42;19.35;;;25.40;76.60;;;;;;5018322;28;20030;-85
2021/07/11 00:34:27;;;;;;;21.83;19.00;;;25.40;76.80;;;;;;5018957;28;20164;-85
2021/07/11 00:36:53;;;;;;;20.05;18.20;;;25.30;76.70;;;;;;5037056;28;20542;-85
2021/07/11 00:39:19;;;;;;;20.45;17.33;;;25.40;76.70;;;;;;5041344;28;20029;-86
2021/07/11 00:41:45;;;;;;;22.88;16.73;;;25.40;76.10;;;;;;5041661;28;20026;-85
2021/07/11 00:44:10;;;;;;;18.02;16.15;;;25.40;75.80;;;;;;5047266;28;20339;-86
2021/07/11 00:46:37;;;;;;;17.63;15.82;;;25.40;75.60;;;;;;5041476;28;20036;-85
2021/07/11 00:49:07;;;;;;;18.83;16.55;;;25.40;75.30;;;;;;5022785;28;20072;-87
2021/07/11 00:51:36;;;;;;;18.40;16.48;;;25.40;75.30;;;;;;5048720;28;20076;-86
2021/07/11 00:54:02;;;;;;;18.25;16.33;;;25.40;75.40;;;;;;5039049;28;20028;-85
2021/07/11 00:56:28;;;;;;;18.45;16.35;;;;;;;;;;5037627;28;20048;-86
2021/07/11 00:58:54;;;;;;;17.88;16.15;;;;;;;;;;5028430;28;20491;-84
2021/07/11 01:01:26;;;;;;;21.33;16.00;;;;;;;;;;5030853;28;20025;-86
2021/07/11 01:03:56;;;;;;;17.83;16.02;;;;;;;;;;5037924;28;20430;-85
2021/07/11 01:06:22;;;;;;;18.33;16.60;;;;;;;;;;5040100;28;20033;-85
2021/07/11 01:09:02;;;;;;;17.43;15.67;;;;;;;;;;5039079;28;20018;-85
2021/07/11 01:11:31;;;;;;;17.27;15.48;;;;;;;;;;5036487;28;20041;-84
2021/07/11 01:13:57;;;;;;;17.65;15.98;;;;;;;;;;5035228;28;20041;-85
2021/07/11 01:16:27;;;;;;;19.05;17.08;;;;;;;;;;5036003;28;20025;-86
2021/07/11 01:18:54;;;;;;;19.35;16.52;;;;;;;;;;5040029;28;20022;-86
2021/07/11 01:21:22;;;;;;;18.08;15.50;;;25.40;75.90;;;;;;5038085;28;20540;-86
2021/07/11 01:24:39;;;;;;;18.17;15.10;;;25.20;74.60;;;;;;5036772;28;20089;-87
2021/07/11 01:27:06;;;;;;;16.17;14.75;;;;;;;;;;4969363;28;20043;-87
2021/07/11 01:29:32;;;;;;;16.77;15.27;;;;;;;;;;4965921;28;20030;-87
2021/07/11 01:32:00;;;;;;;17.75;15.95;;;25.20;74.30;;;;;;4962575;28;20031;-87
2021/07/11 01:34:27;;;;;;;17.95;16.25;;;25.10;75.10;;;;;;4963237;28;20038;-87
2021/07/11 01:36:54;;;;;;;21.17;17.42;;;25.20;75.20;;;;;;4963410;28;20031;-87
2021/07/11 01:39:21;;;;;;;18.83;17.02;;;25.20;75.60;;;;;;4956345;28;20030;-87
2021/07/11 01:41:47;;;;;;;18.00;15.95;;;25.20;75.20;;;;;;4956856;28;20046;-86
2021/07/11 01:44:14;;;;;;;17.33;15.82;;;25.10;75.30;;;;;;4955065;29;20047;-81
2021/07/11 01:46:43;;;;;;;20.38;17.35;;;25.10;75.50;;;;;;4977470;28;20125;-87
2021/07/11 01:49:09;;;;;;;17.85;15.80;;;25.10;75.50;;;;;;4983012;28;20027;-86
2021/07/11 01:51:35;;;;;;;18.47;16.67;;;25.10;75.60;;;;;;4961945;28;20081;-87
2021/07/11 01:54:01;;;;;;;18.05;16.15;;;25.00;75.60;;;;;;4954660;28;20032;-87
2021/07/11 01:56:28;;;;;;;17.17;15.38;;;25.00;75.40;;;;;;4958481;28;20031;-87
2021/07/11 01:58:54;;;;;;;17.67;14.43;;;25.00;74.80;;;;;;4969483;28;20031;-87
2021/07/11 02:01:20;;;;;;;18.00;15.13;;;24.90;73.60;;;;;;5009556;28;20382;-87
2021/07/11 02:03:46;;;;;;;16.17;14.32;;;24.90;73.50;;;;;;5035937;28;20493;-87
2021/07/11 02:06:13;;;;;;;17.10;13.98;;;;;;;;;;5047320;28;20041;-86
2021/07/11 02:08:41;;;;;;;20.50;14.73;;;;;;;;;;5025267;28;20029;-87
2021/07/11 02:11:08;;;;;;;17.05;15.27;;;;;;;;;;5038852;28;20027;-85
2021/07/11 02:13:36;;;;;;;15.02;13.63;;;;;;;;;;5027842;28;20030;-87
2021/07/11 02:16:07;;;;;;;16.00;14.25;;;;;;;;;;5049378;28;20021;-86
2021/07/11 02:18:34;;;;;;;16.10;14.35;;;;;;;;;;5046893;28;20022;-87
2021/07/11 02:21:01;;;;;;;15.00;13.60;;;;;;;;;;5028948;28;20098;-86
2021/07/11 02:23:31;;;;;;;16.88;15.00;;;;;;;;;;5031787;28;20021;-84
2021/07/11 02:25:57;;;;;;;16.98;14.25;;;;;;;;;;5032817;28;20041;-84
2021/07/11 02:28:24;;;;;;;15.88;14.38;;;;;;;;;;5032640;28;20025;-83
2021/07/11 02:30:52;;;;;;;15.73;14.38;;;;;;;;;;5032843;28;20032;-83
2021/07/11 02:33:32;;;;;;;15.70;14.10;;;;;;;;;;5032797;28;20029;-84
2021/07/11 02:36:00;;;;;;;15.63;13.98;;;;;;;;;;5032923;28;20494;-84
2021/07/11 02:38:30;;;;;;;14.73;13.10;;;;;;;;;;5032986;28;20031;-85
2021/07/11 02:40:56;;;;;;;16.30;14.55;;;;;;;;;;5037761;28;20144;-84
2021/07/11 02:43:22;;;;;;;15.27;13.13;;;;;;;;;;5021765;28;20479;-84
2021/07/11 02:45:48;;;;;;;14.93;12.95;;;;;;;;;;5018577;28;20034;-83
2021/07/11 02:48:15;;;;;;;18.80;13.45;;;;;;;;;;5037737;28;20025;-84
2021/07/11 02:50:45;;;;;;;14.47;12.93;;;;;;;;;;5035565;28;20026;-85
2021/07/11 02:53:12;;;;;;;15.55;13.15;;;;;;;;;;5037831;28;20030;-87
2021/07/11 02:55:39;;;;;;;14.40;12.07;;;;;;;;;;5042599;28;20077;-86
2021/07/11 02:58:08;;;;;;;15.48;13.93;;;;;;;;;;5039674;28;20068;-85
2021/07/11 03:00:34;;;;;;;16.20;12.77;;;;;;;;;;5037482;28;20112;-86
2021/07/11 03:03:01;;;;;;;15.40;13.63;;;;;;;;;;5037354;28;20029;-85
2021/07/11 03:05:28;;;;;;;15.95;13.68;;;;;;;;;;5036990;28;20350;-85
2021/07/11 03:07:54;;;;;;;15.43;13.40;;;;;;;;;;5036710;28;20470;-85
2021/07/11 03:10:20;;;;;;;15.82;13.90;;;;;;;;;;5037316;28;20037;-86
2021/07/11 03:12:49;;;;;;;15.30;13.70;;;;;;;;;;5037180;28;20036;-86
2021/07/11 03:15:17;;;;;;;14.43;12.93;;;;;;;;;;5037928;28;20799;-84
2021/07/11 03:17:43;;;;;;;14.63;13.05;;;;;;;;;;5036851;28;20033;-86
2021/07/11 03:20:10;;;;;;;15.15;13.55;;;;;;;;;;5036936;28;20021;-86
2021/07/11 03:22:37;;;;;;;12.80;11.43;;;;;;;;;;5037836;28;20109;-86
2021/07/11 03:25:06;;;;;;;12.93;11.73;;;;;;;;;;5037462;28;20025;-87
2021/07/11 03:27:32;;;;;;;14.13;12.63;;;;;;;;;;5038156;28;20033;-85
2021/07/11 03:30:10;;;;;;;12.55;11.23;;;;;;;;;;5020175;28;20022;-85
2021/07/11 03:32:45;;;;;;;16.17;13.00;;;;;;;;;;5038043;28;20083;-85
2021/07/11 03:35:11;;;;;;;15.75;14.02;;;;;;;;;;5038641;28;20026;-88
2021/07/11 03:37:41;;;;;;;16.30;12.07;;;;;;;;;;5039001;28;20037;-85
2021/07/11 03:40:08;;;;;;;13.50;11.57;;;;;;;;;;5048129;28;20032;-87
2021/07/11 03:42:34;;;;;;;;;;;;;;;;;;5037216;28;20026;-86
2021/07/11 03:45:00;;;;;;;14.68;10.82;;;;;;;;;;5036842;28;19987;-85
2021/07/11 03:47:33;;;;;;;13.15;11.32;;;;;;;;;;5028463;28;20096;-85
2021/07/11 03:49:59;;;;;;;13.48;11.32;;;;;;;;;;5030541;28;20029;-85
2021/07/11 03:52:27;;;;;;;10.55;9.38;;;;;;;;;;5039573;28;20026;-87
2021/07/11 03:54:55;;;;;;;13.95;10.23;;;;;;;;;;5041560;28;20067;-86
2021/07/11 03:57:25;;;;;;;14.18;11.38;;;;;;;;;;5039143;28;20021;-88
2021/07/11 03:59:53;;;;;;;12.95;11.25;;;;;;;;;;5016393;28;20029;-87
2021/07/11 04:02:19;;;;;;;12.35;11.15;;;;;;;;;;5052202;28;20025;-86
2021/07/11 04:04:47;;;;;;;12.00;10.90;;;;;;;;;;5037641;28;20022;-84
2021/07/11 04:07:13;;;;;;;;;;;;;;;;;;5037405;28;20438;-85
2021/07/11 04:09:40;;;;;;;13.33;11.27;;;;;;;;;;5036035;28;19904;-85
2021/07/11 04:12:11;;;;;;;15.88;13.40;;;;;;;;;;5018848;28;20087;-85
2021/07/11 04:14:39;;;;;;;15.23;12.07;;;;;;;;;;5041440;28;20101;-84
2021/07/11 04:17:09;;;;;;;12.27;11.05;;;;;;;;;;5058917;28;20022;-80
2021/07/11 04:19:37;;;;;;;11.32;10.10;;;;;;;;;;5057265;28;20037;-86
2021/07/11 04:22:04;;;;;;;14.80;11.82;;;;;;;;;;5052519;28;20079;-87
2021/07/11 04:24:30;;;;;;;11.43;10.43;;;;;;;;;;5037470;28;20021;-85
2021/07/11 04:26:56;;;;;;;13.77;10.30;;;;;;;;;;5036246;28;20033;-87
2021/07/11 04:29:22;;;;;;;14.20;10.17;;;;;;;;;;5036672;28;20028;-85
2021/07/11 04:31:49;;;;;;;11.27;9.47;;;;;;;;;;5036296;28;20463;-87
2021/07/11 04:34:35;;;;;;;10.93;9.53;;;;;;;;;;5036334;28;20809;-87
2021/07/11 04:37:03;;;;;;;14.30;9.73;;;;;;;;;;5036720;28;20041;-88
2021/07/11 04:39:29;;;;;;;13.65;9.52;;;;;;;;;;5037646;28;20056;-86
2021/07/11 04:41:56;;;;;;;10.53;8.60;;;;;;;;;;5038025;28;20079;-86
2021/07/11 04:44:23;;;;;;;13.25;10.38;;;;;;;;;;5037172;28;20059;-86
2021/07/11 04:46:49;;;;;;;10.05;7.78;;;;;;;;;;5039039;28;20014;-87
2021/07/11 04:49:15;;;;;;;8.52;7.38;;;;;;;;;;5037944;28;20057;-87
2021/07/11 04:51:41;;;;;;;11.18;8.75;;;;;;;;;;5036741;28;20036;-88
2021/07/11 04:54:08;;;;;;;9.75;8.45;;;;;;;;;;5036111;28;20455;-87
2021/07/11 04:56:34;;;;;;;9.27;7.82;;;;;;;;;;5036320;28;20037;-84
2021/07/11 04:59:01;;;;;;;13.30;7.95;;;;;;;;;;5035502;28;20116;-87
2021/07/11 05:01:27;;;;;;;10.38;8.43;;;;;;;;;;5035305;28;20134;-86
2021/07/11 05:03:53;;;;;;;9.17;8.23;;;;;;;;;;5034934;28;20471;-86
2021/07/11 05:06:20;;;;;;;10.43;9.05;;;;;;;;;;5043234;28;20433;-85
2021/07/11 05:08:46;;;;;;;23.00;18.00;;;;;;;;;;5041239;28;20032;-84
2021/07/11 05:11:12;;;;;;;12.73;9.83;;;;;;;;;;5035969;28;20021;-86
2021/07/11 05:13:38;;;;;;;10.63;8.23;;;24.90;73.20;;;;;;5035970;28;20446;-85
2021/07/11 05:16:04;;;;;;;7.03;6.38;;;29.60;47.80;;;;;;5023993;28;20029;-88
2021/07/11 05:18:30;;;;;;;8.25;6.05;;;30.40;46.50;;;;;;5039110;28;20026;-86
2021/07/11 05:20:56;;;;;;;10.18;5.40;;;;;;;;;;5036230;28;20391;-86
2021/07/11 05:23:22;;;;;;;10.05;6.30;;;31.30;44.50;;;;;;5035564;28;20017;-85
2021/07/11 05:25:48;;;;;;;10.05;7.13;;;32.90;41.80;;;;;;5035653;28;20045;-86
2021/07/11 05:28:14;;;;;;;14.03;8.93;;;33.60;39.20;;;;;;5017698;28;20482;-85
2021/07/11 05:30:41;;;;;;;7.80;6.20;;;33.90;39.20;;;;;;5035056;28;20434;-86
2021/07/11 05:33:07;;;;;;;7.03;4.90;;;34.40;38.30;;;;;;5037698;28;20021;-85
2021/07/11 05:35:33;;;;;;;12.57;7.27;;;34.50;37.50;;;;;;5038406;28;20021;-87
2021/07/11 05:37:59;;;;;;;8.20;5.60;;;34.60;37.30;;;;;;5035758;28;20076;-87
2021/07/11 05:40:25;;;;;;;6.57;5.03;;;34.90;37.00;;;;;;5035276;28;20026;-88
2021/07/11 05:42:51;;;;;;;6.33;5.23;;;35.80;36.30;;;;;;5035375;28;20025;-88
2021/07/11 05:45:17;;;;;;;5.75;4.75;;;36.50;35.50;;;;;;5035175;28;20025;-87
2021/07/11 05:47:43;;;;;;;8.43;4.78;;;36.70;35.40;;;;;;5043019;28;20038;-89
2021/07/11 05:50:09;;;;;;;7.65;5.05;;;37.30;34.00;;;;;;5042042;28;20056;-85
2021/07/11 05:52:35;;;;;;;;;;;37.60;33.70;;;;;;5035026;28;20037;-86
2021/07/11 05:55:01;;;;;;;;;;;37.40;34.30;;;;;;5034829;28;19905;-85
2021/07/11 05:57:28;;;;;;;5.43;4.93;;;37.40;34.20;;;;;;5030474;28;19909;-87
2021/07/11 05:59:55;;;;;;;6.35;4.40;;;37.70;33.20;;;;;;5012507;28;20052;-86
2021/07/11 06:02:22;;;;;;;9.75;5.40;;;38.40;32.60;;;;;;5049185;28;20049;-86
2021/07/11 06:04:47;;;;;;;11.25;7.28;;;39.10;32.50;;;;;;5035138;28;20087;-83
2021/07/11 06:07:13;;;;;;;11.20;5.25;;;39.90;31.40;;;;;;5018165;28;20037;-83
2021/07/11 06:09:39;;;;;;;8.73;4.53;;;39.80;31.00;;;;;;5034574;28;20113;-86
2021/07/11 06:12:05;;;;;;;8.48;5.78;;;39.50;30.40;;;;;;5045361;28;20025;-85
2021/07/11 06:14:31;;;;;;;7.93;4.70;;;39.70;30.50;;;;;;5036609;28;20034;-85
2021/07/11 06:16:57;;;;;;;5.97;5.35;;;40.00;30.30;;;;;;5040221;28;20081;-84
2021/07/11 06:19:23;;;;;;;;;;;40.80;30.20;;;;;;5045694;28;20124;-83
2021/07/11 06:21:49;;;;;;;7.82;5.97;;;41.00;31.10;;;;;;5036200;28;19967;-86
2021/07/11 06:24:16;;;;;;;13.63;8.60;;;40.90;30.30;;;;;;5035946;28;20028;-86
2021/07/11 06:26:42;;;;;;;9.40;6.20;;;41.00;30.50;;;;;;5040838;28;20506;-84
2021/07/11 06:29:08;;;;;;;17.52;6.47;;;41.60;30.00;;;;;;5040306;28;20124;-85
2021/07/11 06:31:34;;;;;;;9.88;6.15;;;42.80;29.60;;;;;;5043340;28;20025;-86
2021/07/11 06:34:01;;;;;;;7.88;4.95;;;43.60;28.90;;;;;;5024472;28;20399;-85
2021/07/11 06:36:27;;;;;;;9.43;6.38;;;44.00;28.40;;;;;;5034985;28;20048;-85
2021/07/11 06:38:53;;;;;;;7.03;5.05;;;43.80;28.20;;;;;;5039462;28;20021;-85
2021/07/11 06:41:19;;;;;;;4.93;4.35;;;43.20;28.10;;;;;;5038772;28;20064;-85
2021/07/11 06:43:45;;;;;;;4.45;4.05;;;42.00;28.50;;;;;;5038581;28;20029;-85
2021/07/11 06:46:11;;;;;;;7.55;4.88;;;41.90;28.90;;;;;;5041252;28;20060;-87
2021/07/11 06:48:37;;;;;;;;;;;41.40;28.90;;;;;;5053032;28;20045;-84
2021/07/11 06:51:07;;;;;;;6.03;3.90;;;41.40;29.60;;;;;;5043444;28;19899;-85
2021/07/11 06:53:35;;;;;;;5.85;4.38;;;42.10;28.90;;;;;;5035724;28;20021;-85
2021/07/11 06:56:01;;;;;;;5.55;4.07;;;42.80;28.10;;;;;;5049966;28;20089;-85
2021/07/11 06:58:27;;;;;;;4.30;3.17;;;42.70;28.10;;;;;;5041348;28;20034;-88
2021/07/11 07:00:53;;;;;;;;;;;43.70;27.90;;;;;;5040528;28;20021;-85
2021/07/11 07:03:18;;;;;;;8.27;6.45;;;43.20;28.00;;;;;;5031164;28;19905;-87
2021/07/11 07:05:44;;;;;;;11.15;3.85;;;42.00;28.30;;;;;;5033609;28;20041;-86
2021/07/11 07:08:10;;;;;;;3.78;3.47;;;41.90;28.70;;;;;;5038539;28;20021;-87
2021/07/11 07:10:36;;;;;;;;;;;42.70;28.50;;;;;;5039379;28;20442;-88
2021/07/11 07:13:03;;;;;;;9.55;4.28;;;44.00;28.80;;;;;;5037705;28;19916;-87
2021/07/11 07:15:29;;;;;;;5.55;4.53;;;45.30;27.70;;;;;;5039509;28;20021;-84
2021/07/11 07:17:55;;;;;;;10.43;6.13;;;46.20;27.00;;;;;;5045797;28;20013;-83
2021/07/11 07:20:20;;;;;;;11.35;5.53;;;45.10;27.00;;;;;;5052839;28;20105;-84
2021/07/11 07:22:46;;;;;;;;;;;43.40;27.80;;;;;;5042743;28;20021;-84
2021/07/11 07:25:15;;;;;;;13.85;6.47;;;41.70;29.00;;;;;;5037040;28;19905;-84
2021/07/11 07:27:42;;;;;;;6.53;5.25;;;41.70;29.30;;;;;;5038129;28;20060;-86
2021/07/11 07:30:10;;;;;;;5.72;4.50;;;42.60;29.10;;;;;;5038041;28;20044;-87
2021/07/11 07:32:37;;;;;;;6.57;5.13;;;44.10;28.30;;;;;;5017198;28;20026;-88
2021/07/11 07:35:06;;;;;;;5.28;4.78;;;;;;;;;;5044662;28;20101;-86
2021/07/11 07:37:32;;;;;;;6.75;5.43;;;46.60;27.50;;;;;;5037600;28;20097;-86
2021/07/11 07:39:59;;;;;;;5.40;4.85;;;46.90;26.90;;;;;;5037907;28;20065;-86
2021/07/11 07:42:24;;;;;;;8.57;5.10;;;46.50;26.70;;;;;;5036912;28;20025;-86
2021/07/11 07:44:50;;;;;;;8.82;6.88;;;46.70;26.60;;;;;;5037224;28;20372;-85
2021/07/11 07:47:16;;;;;;;6.07;5.03;;;46.30;26.80;;;;;;5036787;28;20094;-85
2021/07/11 07:49:42;;;;;;;6.35;4.65;;;45.50;26.90;;;;;;5037543;28;20070;-85
2021/07/11 07:52:08;;;;;;;9.60;5.50;;;44.80;27.30;;;;;;5037358;28;20018;-85
2021/07/11 07:54:34;;;;;;;5.70;5.07;;;44.80;27.50;;;;;;5036680;28;20018;-85
2021/07/11 07:57:01;;;;;;;7.03;5.05;;;45.20;27.10;;;;;;5037297;28;20083;-85
2021/07/11 07:59:26;;;;;;;8.98;5.22;;;45.80;27.10;;;;;;5036700;28;20032;-87
2021/07/11 08:01:52;;;;;;;8.10;4.72;;;46.70;26.80;;;;;;5036589;28;20025;-85
2021/07/11 08:04:20;;;;;;;6.57;4.72;;;47.90;26.30;;;;;;5036299;28;20095;-84
2021/07/11 08:06:47;;;;;;;5.78;4.60;;;48.80;25.80;;;;;;5035801;28;20121;-85
2021/07/11 08:09:14;;;;;;;4.70;4.30;;;49.30;25.60;;;;;;5035295;28;20391;-85
2021/07/11 08:11:40;;;;;;;8.57;5.28;;;48.40;25.60;;;;;;5036164;28;20021;-84
2021/07/11 08:14:05;;;;;;;7.28;5.25;;;48.10;26.00;;;;;;5018428;28;20498;-84
2021/07/11 08:16:31;;;;;;;5.32;4.82;;;48.40;25.70;;;;;;5018506;28;20021;-86
2021/07/11 08:18:57;;;;;;;50.03;10.10;;;48.20;25.80;;;;;;5018544;28;20424;-85
2021/07/11 08:21:23;;;;;;;11.50;6.20;;;48.00;26.00;;;;;;5038431;28;20021;-87
2021/07/11 08:23:48;;;;;;;4.80;4.30;;;47.90;26.10;;;;;;5043622;28;20029;-85
2021/07/11 08:26:14;;;;;;;9.18;5.22;;;47.80;26.10;;;;;;5037413;28;20064;-87
2021/07/11 08:28:40;;;;;;;4.80;4.30;;;47.90;26.10;;;;;;5039131;28;20025;-87
2021/07/11 08:31:06;;;;;;;6.32;5.20;;;45.70;26.50;;;;;;5039901;28;20446;-87
2021/07/11 08:33:32;;;;;;;6.07;4.22;;;44.60;27.50;;;;;;5037309;28;20056;-88
2021/07/11 08:35:59;;;;;;;5.35;4.80;;;44.80;27.30;;;;;;5037476;28;20368;-88
2021/07/11 08:38:25;;;;;;;6.00;4.90;;;45.40;27.70;;;;;;5016537;28;20021;-86
2021/07/11 08:40:50;;;;;;;5.57;5.00;;;45.60;27.00;;;;;;5026923;28;20033;-91
2021/07/11 08:43:18;;;;;;;6.55;4.97;;;46.40;26.80;;;;;;5037465;28;20069;-87
2021/07/11 08:45:44;;;;;;;7.35;5.43;;;46.40;26.60;;;;;;5036989;28;20025;-86
2021/07/11 08:48:11;;;;;;;8.77;4.97;;;47.20;26.50;;;;;;5037631;28;20029;-88
2021/07/11 08:50:37;;;;;;;5.47;4.50;;;47.50;26.30;;;;;;5026025;28;20026;-87
2021/07/11 08:53:04;;;;;;;6.10;4.90;;;48.00;26.30;;;;;;5037095;28;20095;-87
2021/07/11 08:55:30;;;;;;;5.93;4.70;;;47.90;26.20;;;;;;5045825;28;20032;-87
2021/07/11 08:58:00;;;;;;;6.93;6.32;;;47.90;26.10;;;;;;5031029;28;20025;-88
2021/07/11 09:00:29;;;;;;;5.97;5.47;;;47.80;26.10;;;;;;5035529;28;20032;-88
2021/07/11 09:02:55;;;;;;;6.68;5.57;;;47.30;26.40;;;;;;5024226;28;20053;-86
2021/07/11 09:05:24;;;;;;;6.45;5.20;;;48.00;26.00;;;;;;5028145;28;20034;-88
2021/07/11 09:08:13;;;;;;;6.78;5.63;;;47.70;26.00;;;;;;5032300;28;20036;-89
2021/07/11 09:11:07;;;;;;;6.35;5.82;;;48.30;26.00;;;;;;5021186;28;20033;-89
2021/07/11 09:13:32;;;;;;;8.00;5.28;;;48.70;25.90;;;;;;4972772;28;20118;-85
2021/07/11 09:15:59;;;;;;;5.43;4.93;;;48.60;25.70;;;;;;4970804;28;20062;-87
2021/07/11 09:18:34;;;;;;;7.63;5.30;;;48.20;25.80;;;;;;4975794;28;20054;-88
2021/07/11 09:21:11;;;;;;;9.00;5.43;;;48.30;26.50;;;;;;4964182;28;20023;-86
2021/07/11 09:23:38;;;;;;;7.68;5.30;;;48.50;26.00;;;;;;4997774;28;20022;-86
2021/07/11 09:26:09;;;;;;;5.50;4.97;;;48.40;25.80;;;;;;4991907;28;20053;-87
2021/07/11 09:28:43;;;;;;;7.38;5.57;;;47.90;25.90;;;;;;4985787;28;20027;-87
2021/07/11 09:31:20;;;;;;;11.88;6.93;;;46.20;26.50;;;;;;4995015;28;20019;-90
2021/07/11 09:33:57;;;;;;;11.57;6.03;;;44.00;27.90;;;;;;4982334;28;20095;-90
2021/07/11 09:36:29;;;;;;;8.18;5.63;;;44.30;28.10;;;;;;4994980;28;20038;-89
2021/07/11 09:39:00;;;;;;;6.78;5.07;;;45.10;27.70;;;;;;4980826;28;20024;-90
2021/07/11 09:41:31;;;;;;;5.53;5.13;;;45.80;27.40;;;;;;4978512;28;20039;-87
2021/07/11 09:43:59;;;;;;;8.32;6.85;;;45.80;26.90;;;;;;4949324;28;20043;-84
2021/07/11 09:46:28;;;;;;;6.75;5.00;;;45.70;27.60;;;;;;4955692;28;20038;-87
2021/07/11 09:48:54;;;;;;;6.18;5.63;;;44.90;27.30;;;;;;4956364;28;20030;-83
2021/07/11 09:51:24;;;;;;;6.97;6.38;;;44.20;27.70;;;;;;5032066;28;20554;-88
2021/07/11 09:53:52;;;;;;;6.28;5.65;;;44.60;27.70;;;;;;5036642;28;20014;-92
2021/07/11 09:56:39;;;;;;;7.53;5.45;;;44.70;27.80;;;;;;5020443;28;20140;-90
2021/07/11 09:59:07;;;;;;;5.68;5.07;;;45.50;27.50;;;;;;5038977;28;20017;-89
2021/07/11 10:01:35;;;;;;;9.93;4.90;;;45.00;27.30;;;;;;5041176;28;20018;-87
2021/07/11 10:04:01;;;;;;;6.85;5.15;;;45.70;27.20;;;;;;5041363;28;20025;-91
2021/07/11 10:06:31;;;;;;;6.10;5.18;;;45.40;26.80;;;;;;5023691;28;20042;-94
2021/07/11 10:09:00;;;;;;;6.88;5.25;;;44.60;27.30;;;;;;5026544;28;20092;-94
2021/07/11 10:11:27;;;;;;;6.68;5.30;;;44.10;27.40;;;;;;5025447;28;20030;-94
2021/07/11 10:13:53;;;;;;;9.75;5.72;;;43.90;27.90;;;;;;5021664;28;20054;-92
2021/07/11 10:16:23;;;;;;;5.85;5.15;;;43.10;28.30;;;;;;5030628;28;20026;-90
2021/07/11 10:18:50;;;;;;;7.28;5.40;;;42.80;28.50;;;;;;5022783;28;20025;-91
2021/07/11 10:21:19;;;;;;;6.72;5.82;;;42.30;28.60;;;;;;5026217;28;20034;-94
2021/07/11 10:23:45;;;;;;;5.68;5.28;;;42.10;29.10;;;;;;5027859;28;20030;-94
2021/07/11 10:26:16;;;;;;;7.30;5.15;;;42.90;28.60;;;;;;5027474;28;20053;-95
2021/07/11 10:28:43;;;;;;;19.20;6.25;;;43.50;28.40;;;;;;5027736;28;20018;-94
2021/07/11 10:31:27;;;;;;;5.82;5.32;;;44.40;27.70;;;;;;5013823;28;20018;-91
2021/07/11 10:33:56;;;;;;;6.75;5.38;;;44.30;27.50;;;;;;5030576;28;20223;-84
2021/07/11 10:36:33;;;;;;;7.78;5.25;;;42.80;27.90;;;;;;5014988;28;20022;-86
2021/07/11 10:38:59;;;;;;;6.78;6.10;;;41.10;29.00;;;;;;5011721;28;20038;-86
2021/07/11 10:41:30;;;;;;;7.68;6.20;;;39.80;30.00;;;;;;5003025;28;20028;-85
2021/07/11 10:44:11;;;;;;;6.70;6.00;;;38.40;31.40;;;;;;5012180;28;20033;-83
2021/07/11 10:46:45;;;;;;;7.40;5.82;;;37.30;32.80;;;;;;5012748;28;20066;-82
2021/07/11 10:49:20;;;;;;;7.15;6.40;;;36.60;33.50;;;;;;5001986;28;20467;-85
2021/07/11 10:51:56;;;;;;;7.10;6.50;;;35.90;34.50;;;;;;5007445;28;20549;-84
2021/07/11 10:54:21;;;;;;;6.88;6.18;;;35.40;35.60;;;;;;5013673;28;20503;-85
2021/07/11 10:56:48;;;;;;;7.67;6.50;;;35.20;36.00;;;;;;5013450;28;20104;-83
2021/07/11 10:59:29;;;;;;;7.20;6.60;;;35.00;36.10;;;;;;5003089;28;20029;-82
2021/07/11 11:01:56;;;;;;;6.88;5.97;;;34.80;36.40;;;;;;5020380;28;20022;-86
2021/07/11 11:04:22;;;;;;;;;;;34.30;36.80;;;;;;5029709;28;20030;-84
2021/07/11 11:06:48;;;;;;;7.90;6.03;;;34.00;36.60;;;;;;5024510;28;20007;-84
2021/07/11 11:09:33;;;;;;;;;;;33.90;37.70;;;;;;5029556;28;20454;-85
2021/07/11 11:11:58;;;;;;;11.25;5.95;;;33.90;36.80;;;;;;5027218;28;20259;-86
2021/07/11 11:14:27;;;;;;;6.70;5.83;;;33.90;37.80;;;;;;5037969;28;20053;-83
2021/07/11 11:16:53;;;;;;;8.57;6.18;;;33.60;38.10;;;;;;5037512;28;20028;-84
2021/07/11 11:19:24;;;;;;;6.70;6.13;;;33.50;38.40;;;;;;5019593;28;20017;-85
2021/07/11 11:21:54;;;;;;;9.07;6.30;;;33.30;38.40;;;;;;5037331;28;20025;-85
2021/07/11 11:24:20;;;;;;;7.97;7.10;;;33.10;38.90;;;;;;5036858;28;20036;-82
2021/07/11 11:26:46;;;;;;;7.70;6.77;;;33.20;38.50;;;;;;5017523;28;20037;-83
2021/07/11 11:29:12;;;;;;;7.82;6.38;;;33.10;38.60;;;;;;5035839;28;20018;-83
2021/07/11 11:31:37;;;;;;;6.83;6.23;;;32.90;38.90;;;;;;5035210;28;20069;-91
2021/07/11 11:34:06;;;;;;;7.60;6.80;;;32.90;39.40;;;;;;5047226;28;20030;-90
2021/07/11 11:36:42;;;;;;;8.07;6.78;;;32.90;39.10;;;;;;5030031;28;20033;-90
2021/07/11 11:39:09;;;;;;;7.00;6.30;;;33.00;39.30;;;;;;5033231;28;20026;-87
2021/07/11 11:41:37;;;;;;;6.63;6.05;;;33.20;38.80;;;;;;5022603;28;20046;-86
2021/07/11 11:44:14;;;;;;;9.32;6.75;;;33.20;39.00;;;;;;5025552;28;20052;-85
2021/07/11 11:46:42;;;;;;;8.55;6.25;;;33.10;39.30;;;;;;5053700;28;20033;-90
2021/07/11 11:49:11;;;;;;;10.82;8.13;;;33.00;39.80;;;;;;5029741;28;20014;-84
2021/07/11 11:51:46;;;;;;;7.70;6.93;;;33.00;39.40;;;;;;5039585;28;20021;-86
2021/07/11 11:54:29;;;;;;;8.30;7.32;;;33.00;39.20;;;;;;5040348;28;20018;-82
2021/07/11 11:56:57;;;;;;;9.45;8.55;;;33.00;39.60;;;;;;5034503;28;20036;-87
2021/07/11 11:59:24;;;;;;;8.82;7.10;;;32.90;39.40;;;;;;5032461;28;20121;-85
2021/07/11 12:01:56;;;;;;;7.65;6.70;;;32.60;39.40;;;;;;5057087;28;20013;-88
2021/07/11 12:04:23;;;;;;;9.55;8.65;;;32.60;39.90;;;;;;5071991;28;20060;-87
2021/07/11 12:06:51;;;;;;;9.15;7.72;;;32.70;40.10;;;;;;5038305;28;20069;-89
2021/07/11 12:09:21;;;;;;;9.43;6.82;;;32.50;40.10;;;;;;5026427;28;20037;-89
2021/07/11 12:12:03;;;;;;;6.25;5.75;;;32.50;39.90;;;;;;5024487;28;20045;-88
2021/07/11 12:14:30;;;;;;;6.63;6.03;;;32.50;39.50;;;;;;5022780;28;20077;-86
2021/07/11 12:17:01;;;;;;;6.68;6.07;;;32.40;39.70;;;;;;5043153;28;20079;-86
2021/07/11 12:19:27;;;;;;;14.35;6.60;;;32.40;39.70;;;;;;5044981;28;20052;-85
2021/07/11 12:21:54;;;;;;;7.93;6.60;;;32.40;40.20;;;;;;5043728;28;20049;-87
2021/07/11 12:24:24;;;;;;;9.60;6.85;;;32.50;39.70;;;;;;5041945;28;20086;-84
2021/07/11 12:26:55;;;;;;;7.97;6.68;;;32.50;39.80;;;;;;5014892;28;20429;-81
2021/07/11 12:29:30;;;;;;;6.60;5.78;;;32.50;39.80;;;;;;5036528;28;20024;-83
2021/07/11 12:32:04;;;;;;;6.30;5.70;;;32.50;39.90;;;;;;5028554;28;20033;-87
2021/07/11 12:34:31;;;;;;;7.60;6.35;;;32.50;39.40;;;;;;5039886;28;20060;-90
2021/07/11 12:37:04;;;;;;;7.28;6.40;;;32.50;39.60;;;;;;5020149;28;20025;-91
2021/07/11 12:39:31;;;;;;;6.88;6.22;;;32.50;39.40;;;;;;5024951;28;20479;-91
2021/07/11 12:41:57;;;;;;;7.32;6.13;;;32.50;39.80;;;;;;5006175;28;20045;-92
2021/07/11 12:44:40;;;;;;;7.38;5.97;;;32.50;40.30;;;;;;5024996;28;20087;-90
2021/07/11 12:47:10;;;;;;;8.45;6.32;;;32.50;40.20;;;;;;5039037;28;20429;-88
2021/07/11 12:49:37;;;;;;;8.98;6.00;;;32.30;40.10;;;;;;5039736;28;20060;-88
2021/07/11 12:52:10;;;;;;;;;;;32.10;40.70;;;;;;5048592;28;20067;-89
2021/07/11 12:54:36;;;;;;;6.57;6.07;;;32.10;40.00;;;;;;5043179;28;20042;-81
2021/07/11 12:57:05;;;;;;;5.60;5.10;;;32.00;40.40;;;;;;5050589;28;20425;-92
2021/07/11 12:59:57;;;;;;;7.15;5.97;;;31.80;40.50;;;;;;5013628;28;20041;-82
2021/07/11 13:02:27;;;;;;;10.10;6.30;;;31.60;40.70;;;;;;5037549;28;20533;-89
2021/07/11 13:05:07;;;;;;;7.32;6.57;;;31.60;41.40;;;;;;5045593;28;20109;-89
2021/07/11 13:07:34;;;;;;;9.93;6.78;;;31.60;41.60;;;;;;5036393;28;20502;-85
2021/07/11 13:10:03;;;;;;;7.32;6.60;;;31.80;41.40;;;;;;5036618;28;20029;-87
2021/07/11 13:12:30;;;;;;;13.98;5.35;;;31.90;40.90;;;;;;5037812;28;20061;-88
2021/07/11 13:15:08;;;;;;;;;;;32.10;40.80;;;;;;5032486;28;20045;-88
2021/07/11 13:17:34;;;;;;;6.63;6.03;;;32.20;40.30;;;;;;5037427;28;20371;-87